createdAt,value
2019-05-28T00:00:47.995Z,18.60
2019-05-28T00:03:17.054Z,18.50
2019-05-28T00:05:46.036Z,18.60
2019-05-28T00:08:15.072Z,18.50
2019-05-28T00:10:44.074Z,18.40
2019-05-28T00:13:13.039Z,18.30
2019-05-28T00:15:42.790Z,18.30
2019-05-28T00:18:11.793Z,18.20
2019-05-28T00:20:40.712Z,18.10
2019-05-28T00:23:09.629Z,18.20
2019-05-28T00:25:38.808Z,18.20
2019-05-28T00:28:07.801Z,18.10
2019-05-28T00:30:36.789Z,18.10
2019-05-28T00:33:06.128Z,18.10
2019-05-28T00:35:35.241Z,18.10
2019-05-28T00:38:04.435Z,18.10
2019-05-28T00:40:33.489Z,18.10
2019-05-28T00:43:02.407Z,18.10
2019-05-28T00:45:31.459Z,18.00
2019-05-28T00:48:00.452Z,18.00
2019-05-28T00:50:29.426Z,18.00
2019-05-28T00:52:58.401Z,17.90
2019-05-28T00:55:27.405Z,17.90
2019-05-28T00:57:57.107Z,17.90
2019-05-28T01:00:46.293Z,17.90
2019-05-28T01:03:15.618Z,17.90
2019-05-28T01:05:44.515Z,17.90
2019-05-28T01:08:13.507Z,18.00
2019-05-28T01:10:42.591Z,18.00
2019-05-28T01:13:11.591Z,17.90
2019-05-28T01:15:40.604Z,18.00
2019-05-28T01:18:09.903Z,18.00
2019-05-28T01:20:38.972Z,18.00
2019-05-28T01:23:08.044Z,18.00
2019-05-28T01:25:37.273Z,18.00
2019-05-28T01:28:06.332Z,18.00
2019-05-28T01:30:35.375Z,18.00
2019-05-28T01:33:04.723Z,17.90
2019-05-28T01:35:33.815Z,17.90
2019-05-28T01:38:02.792Z,17.90
2019-05-28T01:40:31.859Z,17.90
2019-05-28T01:43:00.728Z,17.90
2019-05-28T01:45:29.782Z,17.90
2019-05-28T01:47:58.814Z,17.90
2019-05-28T01:50:27.783Z,17.90
2019-05-28T01:52:56.950Z,17.90
2019-05-28T01:55:26.066Z,17.90
2019-05-28T01:57:55.012Z,17.80
2019-05-28T02:00:24.054Z,17.80
2019-05-28T02:02:53.060Z,17.80
2019-05-28T02:05:22.254Z,17.70
2019-05-28T02:07:51.272Z,17.60
2019-05-28T02:10:20.495Z,17.60
2019-05-28T02:12:49.425Z,17.50
2019-05-28T02:15:18.878Z,17.30
2019-05-28T02:17:47.755Z,17.10
2019-05-28T02:20:16.815Z,17.00
2019-05-28T02:22:46.027Z,17.10
2019-05-28T02:25:15.369Z,17.20
2019-05-28T02:27:44.396Z,17.30
2019-05-28T02:30:14.073Z,17.40
2019-05-28T02:32:43.114Z,17.40
2019-05-28T02:35:13.897Z,17.40
2019-05-28T02:43:07.227Z,17.40
2019-05-28T02:45:36.194Z,17.40
2019-05-28T02:48:05.231Z,17.30
2019-05-28T02:51:03.221Z,17.30
2019-05-28T02:53:32.711Z,17.30
2019-05-28T02:56:01.680Z,17.30
2019-05-28T02:58:34.297Z,17.40
2019-05-28T03:01:05.358Z,17.40
2019-05-28T03:03:34.561Z,17.40
2019-05-28T03:06:05.978Z,17.40
2019-05-28T03:08:34.972Z,17.50
2019-05-28T03:11:04.659Z,17.50
2019-05-28T03:13:33.966Z,17.40
2019-05-28T03:16:04.596Z,17.50
2019-05-28T03:18:37.898Z,17.40
2019-05-28T03:21:08.063Z,17.30
2019-05-28T03:23:38.842Z,17.20
2019-05-28T03:26:08.054Z,17.20
2019-05-28T03:28:37.563Z,17.20
2019-05-28T03:31:06.666Z,17.30
2019-05-28T03:33:35.674Z,17.30
2019-05-28T03:36:06.344Z,17.40
2019-05-28T03:38:36.998Z,17.40
2019-05-28T03:41:05.826Z,17.40
2019-05-28T03:43:34.823Z,17.40
2019-05-28T03:46:03.748Z,17.40
2019-05-28T03:48:32.822Z,17.40
2019-05-28T03:51:01.843Z,17.50
2019-05-28T03:53:31.103Z,17.40
2019-05-28T03:55:59.966Z,17.40
2019-05-28T03:58:29.299Z,17.40
2019-05-28T04:00:58.288Z,17.40
2019-05-28T04:03:27.184Z,17.30
2019-05-28T04:05:56.140Z,17.40
2019-05-28T04:08:25.112Z,17.40
2019-05-28T04:10:54.030Z,17.40
2019-05-28T04:13:23.047Z,17.40
2019-05-28T04:15:52.035Z,17.40
2019-05-28T04:18:20.908Z,17.40
2019-05-28T04:20:50.113Z,17.40
2019-05-28T04:23:19.475Z,17.50
2019-05-28T04:25:48.418Z,17.40
2019-05-28T04:28:17.370Z,17.50
2019-05-28T04:30:46.375Z,17.50
2019-05-28T04:33:15.417Z,17.50
2019-05-28T04:35:44.405Z,17.50
2019-05-28T04:38:13.344Z,17.50
2019-05-28T04:40:42.325Z,17.50
2019-05-28T04:43:11.358Z,17.50
2019-05-28T04:45:40.653Z,17.40
2019-05-28T04:48:09.686Z,17.30
2019-05-28T04:50:38.638Z,17.30
2019-05-28T04:53:07.533Z,17.30
2019-05-28T04:55:36.494Z,17.20
2019-05-28T04:58:05.474Z,17.20
2019-05-28T05:00:34.467Z,17.20
2019-05-28T05:03:03.563Z,17.20
2019-05-28T05:05:32.617Z,17.20
2019-05-28T05:08:01.536Z,17.10
2019-05-28T05:10:30.583Z,17.10
2019-05-28T05:12:59.507Z,17.20
2019-05-28T05:15:28.555Z,17.10
2019-05-28T05:17:57.451Z,17.10
2019-05-28T05:20:26.700Z,17.00
2019-05-28T05:22:55.608Z,17.10
2019-05-28T05:25:24.601Z,17.20
2019-05-28T05:27:53.540Z,17.10
2019-05-28T05:30:22.530Z,17.00
2019-05-28T05:32:51.473Z,17.10
2019-05-28T05:35:20.466Z,17.20
2019-05-28T05:37:49.525Z,17.50
2019-05-28T05:40:18.547Z,17.40
2019-05-28T05:42:47.567Z,17.50
2019-05-28T05:45:16.817Z,17.60
2019-05-28T05:47:45.734Z,17.60
2019-05-28T05:50:15.345Z,17.50
2019-05-28T05:52:44.371Z,17.60
2019-05-28T05:55:13.339Z,17.70
2019-05-28T05:57:42.516Z,17.80
2019-05-28T06:00:12.103Z,18.10
2019-05-28T06:02:41.059Z,18.40
2019-05-28T06:05:10.235Z,18.50
2019-05-28T06:07:39.389Z,18.70
2019-05-28T06:10:08.926Z,18.80
2019-05-28T06:12:37.916Z,18.90
2019-05-28T06:15:07.037Z,18.80
2019-05-28T06:17:35.944Z,18.90
2019-05-28T06:20:06.567Z,18.90
2019-05-28T06:22:35.478Z,18.80
2019-05-28T06:25:07.013Z,18.80
2019-05-28T06:27:35.894Z,18.70
2019-05-28T06:30:05.901Z,18.40
2019-05-28T06:32:35.977Z,18.30
2019-05-28T06:35:06.057Z,18.00
2019-05-28T06:37:35.205Z,17.90
2019-05-28T06:40:05.158Z,18.00
2019-05-28T06:42:38.720Z,18.00
2019-05-28T06:45:05.841Z,17.90
2019-05-28T06:47:34.748Z,17.90
2019-05-28T06:50:04.419Z,17.70
2019-05-28T06:52:33.302Z,17.50
2019-05-28T06:55:02.265Z,17.50
2019-05-28T06:57:31.204Z,17.50
2019-05-28T07:00:00.239Z,17.60
2019-05-28T07:02:29.218Z,17.70
2019-05-28T07:04:58.083Z,17.80
2019-05-28T07:07:27.064Z,17.70
2019-05-28T07:09:56.016Z,17.80
2019-05-28T07:12:24.918Z,17.90
2019-05-28T07:14:53.882Z,18.10
2019-05-28T07:17:22.921Z,18.30
2019-05-28T07:19:52.115Z,18.30
2019-05-28T07:22:21.029Z,18.50
2019-05-28T07:24:49.853Z,18.50
2019-05-28T07:27:23.249Z,18.60
2019-05-28T07:29:52.230Z,18.90
2019-05-28T07:32:21.303Z,19.10
2019-05-28T07:34:50.259Z,19.40
2019-05-28T07:37:19.249Z,19.60
2019-05-28T07:39:48.110Z,19.70
2019-05-28T07:42:31.774Z,19.90
2019-05-28T07:44:47.671Z,20.10
2019-05-28T07:47:16.512Z,20.20
2019-05-28T07:49:45.540Z,20.40
2019-05-28T07:52:14.395Z,20.50
2019-05-28T07:54:43.576Z,20.30
2019-05-28T07:57:12.804Z,20.20
2019-05-28T07:59:42.212Z,20.20
2019-05-28T08:02:11.520Z,20.30
2019-05-28T08:04:47.204Z,20.30
2019-05-28T08:07:11.172Z,20.10
2019-05-28T08:09:40.131Z,20.10
2019-05-28T08:12:09.295Z,20.00
2019-05-28T08:14:38.687Z,19.70
2019-05-28T08:17:07.789Z,19.60
2019-05-28T08:19:37.726Z,19.40
2019-05-28T08:22:06.716Z,19.10
2019-05-28T08:24:35.688Z,18.80
2019-05-28T08:27:04.575Z,18.80
2019-05-28T08:29:33.574Z,18.90
2019-05-28T08:32:02.480Z,19.00
2019-05-28T08:34:31.453Z,20.70
2019-05-28T08:37:05.719Z,23.60
2019-05-28T08:39:33.531Z,26.20
2019-05-28T08:42:03.531Z,26.40
2019-05-28T08:44:32.603Z,26.40
2019-05-28T08:47:01.565Z,25.50
2019-05-28T08:49:30.627Z,24.20
2019-05-28T08:51:59.633Z,23.50
2019-05-28T08:54:28.689Z,22.80
2019-05-28T08:56:57.676Z,22.40
2019-05-28T08:59:26.985Z,21.90
2019-05-28T09:01:56.001Z,21.30
2019-05-28T09:04:24.952Z,21.00
2019-05-28T09:06:54.337Z,21.00
2019-05-28T09:09:23.294Z,21.00
2019-05-28T09:11:52.240Z,21.20
2019-05-28T09:14:21.521Z,21.60
2019-05-28T09:16:50.517Z,22.10
2019-05-28T09:19:19.521Z,22.20
2019-05-28T09:21:48.596Z,22.20
2019-05-28T09:24:17.711Z,21.80
2019-05-28T09:26:46.702Z,21.10
2019-05-28T09:29:15.782Z,20.50
2019-05-28T09:31:44.928Z,20.40
2019-05-28T09:34:14.235Z,20.40
2019-05-28T09:36:43.106Z,20.40
2019-05-28T09:39:12.127Z,20.30
2019-05-28T09:41:48.653Z,20.40
2019-05-28T09:44:17.599Z,20.30
2019-05-28T09:46:46.968Z,20.40
2019-05-28T09:49:15.888Z,20.90
2019-05-28T09:51:44.870Z,21.50
2019-05-28T09:54:14.012Z,22.20
2019-05-28T09:56:43.306Z,22.20
2019-05-28T09:59:12.780Z,22.30
2019-05-28T10:01:41.990Z,22.50
2019-05-28T10:04:10.915Z,22.30
2019-05-28T10:06:41.787Z,21.80
2019-05-28T10:09:11.067Z,21.50
2019-05-28T10:11:40.592Z,21.00
2019-05-28T10:14:09.806Z,20.60
2019-05-28T10:16:38.821Z,20.40
2019-05-28T10:19:07.698Z,20.00
2019-05-28T10:21:36.655Z,19.60
2019-05-28T10:24:05.796Z,19.40
2019-05-28T10:26:34.879Z,19.10
2019-05-28T10:29:04.000Z,18.90
2019-05-28T10:31:33.200Z,18.70
2019-05-28T10:34:02.384Z,18.60
2019-05-28T10:36:36.892Z,18.40
2019-05-28T10:39:02.302Z,18.30
2019-05-28T10:41:31.417Z,18.20
2019-05-28T10:44:00.695Z,18.00
2019-05-28T10:46:29.892Z,17.60
2019-05-28T10:48:59.307Z,17.50
2019-05-28T10:51:28.313Z,17.40
2019-05-28T10:53:57.483Z,17.10
2019-05-28T10:56:26.448Z,17.10
2019-05-28T10:58:56.272Z,17.00
2019-05-28T11:01:25.294Z,17.00
2019-05-28T11:03:54.234Z,17.00
2019-05-28T11:06:23.203Z,17.40
2019-05-28T11:08:52.144Z,17.40
2019-05-28T11:11:21.040Z,17.40
2019-05-28T11:13:53.574Z,17.50
2019-05-28T11:16:21.122Z,17.80
2019-05-28T11:18:50.192Z,18.20
2019-05-28T11:21:19.205Z,18.00
2019-05-28T11:23:48.184Z,18.30
2019-05-28T11:26:17.054Z,18.70
2019-05-28T11:28:46.083Z,18.70
2019-05-28T11:31:15.090Z,18.40
2019-05-28T11:33:44.099Z,18.30
2019-05-28T11:36:14.174Z,18.50
2019-05-28T11:38:43.187Z,18.30
2019-05-28T11:41:12.218Z,18.10
2019-05-28T11:43:41.297Z,18.30
2019-05-28T11:46:10.348Z,18.20
2019-05-28T11:48:39.642Z,18.30
2019-05-28T11:51:08.714Z,18.40
2019-05-28T11:53:37.877Z,18.50
2019-05-28T11:56:06.842Z,18.80
2019-05-28T11:58:35.857Z,18.80
2019-05-28T12:01:04.917Z,19.00
2019-05-28T12:03:33.901Z,19.10
2019-05-28T12:06:03.056Z,19.00
2019-05-28T12:08:32.042Z,19.00
2019-05-28T12:11:01.123Z,19.30
2019-05-28T12:13:30.295Z,19.40
2019-05-28T12:15:59.410Z,19.40
2019-05-28T12:18:31.377Z,19.70
2019-05-28T12:21:00.393Z,19.80
2019-05-28T12:23:29.545Z,20.10
2019-05-28T12:25:58.569Z,20.00
2019-05-28T12:28:37.760Z,20.00
2019-05-28T12:30:58.362Z,20.10
2019-05-28T12:33:29.626Z,20.00
2019-05-28T12:35:58.751Z,19.80
2019-05-28T12:38:27.676Z,19.70
2019-05-28T12:40:56.751Z,19.80
2019-05-28T12:43:25.892Z,19.70
2019-05-28T12:45:55.594Z,19.50
2019-05-28T12:48:24.867Z,19.60
2019-05-28T12:50:54.054Z,19.60
2019-05-28T12:53:23.351Z,19.90
2019-05-28T12:55:52.673Z,20.00
2019-05-28T12:58:40.478Z,20.00
2019-05-28T13:00:52.766Z,20.00
2019-05-28T13:03:21.766Z,19.80
2019-05-28T13:05:50.828Z,19.30
2019-05-28T13:08:31.665Z,19.60
2019-05-28T13:11:00.780Z,19.90
2019-05-28T13:13:29.799Z,20.10
2019-05-28T13:15:59.522Z,20.00
2019-05-28T13:18:28.825Z,19.90
2019-05-28T13:20:57.919Z,19.90
2019-05-28T13:23:27.086Z,19.60
2019-05-28T13:25:56.344Z,19.30
2019-05-28T13:28:25.546Z,19.10
2019-05-28T13:30:54.570Z,19.00
2019-05-28T13:33:26.468Z,18.90
2019-05-28T13:35:55.781Z,18.70
2019-05-28T13:38:27.464Z,18.60
2019-05-28T13:40:55.781Z,18.80
2019-05-28T13:43:24.710Z,19.10
2019-05-28T13:45:53.829Z,19.40
2019-05-28T13:48:23.193Z,19.80
2019-05-28T13:50:52.476Z,19.70
2019-05-28T13:53:21.578Z,19.60
2019-05-28T13:55:50.752Z,19.90
2019-05-28T13:58:19.829Z,20.10
2019-05-28T14:01:08.953Z,20.60
2019-05-28T14:03:38.429Z,20.80
2019-05-28T14:06:07.597Z,21.00
2019-05-28T14:08:46.665Z,21.20
2019-05-28T14:11:08.081Z,20.90
2019-05-28T14:13:37.339Z,20.60
2019-05-28T14:16:06.376Z,20.70
2019-05-28T14:18:35.742Z,20.90
2019-05-28T14:21:04.799Z,20.80
2019-05-28T14:23:33.853Z,20.40
2019-05-28T14:26:02.927Z,20.40
2019-05-28T14:28:32.235Z,20.50
2019-05-28T14:31:01.353Z,20.20
2019-05-28T14:33:30.770Z,20.00
2019-05-28T14:36:00.108Z,20.30
2019-05-28T14:38:29.305Z,20.50
2019-05-28T14:40:59.082Z,20.10
2019-05-28T14:43:28.760Z,19.80
2019-05-28T14:45:57.801Z,19.70
2019-05-28T14:48:26.848Z,19.40
2019-05-28T14:50:55.833Z,19.40
2019-05-28T14:53:24.884Z,19.30
2019-05-28T14:55:53.896Z,19.30
2019-05-28T14:58:22.945Z,19.20
2019-05-28T15:00:51.913Z,19.10
2019-05-28T15:03:20.817Z,19.20
2019-05-28T15:05:49.809Z,19.50
2019-05-28T15:08:18.738Z,19.40
2019-05-28T15:10:47.776Z,19.30
2019-05-28T15:13:16.690Z,19.10
2019-05-28T15:15:45.677Z,19.10
2019-05-28T15:18:15.445Z,19.10
2019-05-28T15:20:44.352Z,19.30
2019-05-28T15:23:13.167Z,19.20
2019-05-28T15:25:42.161Z,19.20
2019-05-28T15:28:11.007Z,19.00
2019-05-28T15:30:42.628Z,18.70
2019-05-28T15:33:10.922Z,18.60
2019-05-28T15:35:39.867Z,18.60
2019-05-28T15:38:08.793Z,18.50
2019-05-28T15:40:37.676Z,18.30
2019-05-28T15:43:07.001Z,18.10
2019-05-28T15:45:36.099Z,18.00
2019-05-28T15:48:05.293Z,17.90
2019-05-28T15:50:34.497Z,18.00
2019-05-28T15:53:03.758Z,17.80
2019-05-28T15:55:32.638Z,17.70
2019-05-28T15:58:01.776Z,17.90
2019-05-28T16:00:30.747Z,18.30
2019-05-28T16:02:59.768Z,18.50
2019-05-28T16:05:28.670Z,18.70
2019-05-28T16:07:57.582Z,18.50
2019-05-28T16:10:26.560Z,18.40
2019-05-28T16:12:55.456Z,18.40
2019-05-28T16:15:24.505Z,18.60
2019-05-28T16:17:53.864Z,18.80
2019-05-28T16:20:23.591Z,18.80
2019-05-28T16:22:52.451Z,18.60
2019-05-28T16:25:21.276Z,18.40
2019-05-28T16:27:50.126Z,18.40
2019-05-28T16:30:19.692Z,18.40
2019-05-28T16:32:48.648Z,18.50
2019-05-28T16:35:19.766Z,18.50
2019-05-28T16:37:48.745Z,18.20
2019-05-28T16:40:18.757Z,18.20
2019-05-28T16:42:47.759Z,18.00
2019-05-28T16:45:17.169Z,18.10
2019-05-28T16:47:46.165Z,18.40
2019-05-28T16:50:15.437Z,18.40
2019-05-28T16:52:44.742Z,18.50
2019-05-28T16:55:13.976Z,18.30
2019-05-28T16:57:43.620Z,18.10
2019-05-28T17:00:13.182Z,17.90
2019-05-28T17:02:42.007Z,18.00
2019-05-28T17:05:11.696Z,18.10
2019-05-28T17:07:40.652Z,18.10
2019-05-28T17:10:10.584Z,18.30
2019-05-28T17:12:39.486Z,18.40
2019-05-28T17:15:09.449Z,18.40
2019-05-28T17:17:38.277Z,18.20
2019-05-28T17:20:08.153Z,18.20
2019-05-28T17:22:37.168Z,18.20
2019-05-28T17:25:10.791Z,18.00
2019-05-28T17:27:37.584Z,17.80
2019-05-28T17:30:18.997Z,17.40
2019-05-28T17:32:37.937Z,17.30
2019-05-28T17:35:07.719Z,17.30
2019-05-28T17:37:36.609Z,17.00
2019-05-28T17:40:06.052Z,16.90
2019-05-28T17:42:35.267Z,16.90
2019-05-28T17:45:05.215Z,17.00
2019-05-28T17:47:42.658Z,17.00
2019-05-28T17:50:05.237Z,17.00
2019-05-28T17:52:34.250Z,17.20
2019-05-28T17:55:03.367Z,17.20
2019-05-28T17:57:32.307Z,17.10
2019-05-28T18:00:01.180Z,17.30
2019-05-28T18:02:30.246Z,17.40
2019-05-28T18:04:59.230Z,17.50
2019-05-28T18:07:28.090Z,17.50
2019-05-28T18:09:57.295Z,17.60
2019-05-28T18:12:26.150Z,17.70
2019-05-28T18:14:55.125Z,17.70
2019-05-28T18:17:24.181Z,17.50
2019-05-28T18:19:53.069Z,17.30
2019-05-28T18:22:22.210Z,17.30
2019-05-28T18:24:51.166Z,17.30
2019-05-28T18:27:20.078Z,17.20
2019-05-28T18:29:49.045Z,17.10
2019-05-28T18:32:18.270Z,17.00
2019-05-28T18:34:47.264Z,17.10
2019-05-28T18:37:16.160Z,17.10
2019-05-28T18:39:45.049Z,17.20
2019-05-28T18:42:13.943Z,17.10
2019-05-28T18:44:42.904Z,17.00
2019-05-28T18:47:11.826Z,16.90
2019-05-28T18:49:40.672Z,16.70
2019-05-28T18:52:09.602Z,16.50
2019-05-28T18:54:38.494Z,16.50
2019-05-28T18:57:07.386Z,16.50
2019-05-28T18:59:36.314Z,16.60
2019-05-28T19:02:05.304Z,16.80
2019-05-28T19:04:34.239Z,16.80
2019-05-28T19:07:03.178Z,16.90
2019-05-28T19:09:32.107Z,16.90
2019-05-28T19:12:01.035Z,16.80
2019-05-28T19:14:30.364Z,16.70
2019-05-28T19:16:59.445Z,16.60
2019-05-28T19:19:28.384Z,16.70
2019-05-28T19:21:57.949Z,16.70
2019-05-28T19:24:26.865Z,16.70
2019-05-28T19:26:55.764Z,16.70
2019-05-28T19:29:24.576Z,16.70
2019-05-28T19:31:53.504Z,16.70
2019-05-28T19:34:22.535Z,16.60
2019-05-28T19:36:51.821Z,16.60
2019-05-28T19:39:23.842Z,16.50
2019-05-28T19:41:54.712Z,16.50
2019-05-28T19:44:23.653Z,16.50
2019-05-28T19:46:52.573Z,16.40
2019-05-28T19:49:21.452Z,16.30
2019-05-28T19:51:50.239Z,16.40
2019-05-28T19:54:19.189Z,16.40
2019-05-28T19:56:48.612Z,16.30
2019-05-28T19:59:17.464Z,16.30
2019-05-28T20:01:46.630Z,16.30
2019-05-28T20:04:15.468Z,16.40
2019-05-28T20:06:44.305Z,16.60
2019-05-28T20:09:13.301Z,16.70
2019-05-28T20:11:42.231Z,16.80
2019-05-28T20:14:11.213Z,16.90
2019-05-28T20:16:40.395Z,16.90
2019-05-28T20:19:09.393Z,16.80
2019-05-28T20:21:38.330Z,16.70
2019-05-28T20:24:08.478Z,16.50
2019-05-28T20:26:37.470Z,16.30
2019-05-28T20:29:08.841Z,16.30
2019-05-28T20:31:37.238Z,16.40
2019-05-28T20:34:07.264Z,16.30
2019-05-28T20:36:36.402Z,16.30
2019-05-28T20:39:07.817Z,16.40
2019-05-28T20:41:37.009Z,16.40
2019-05-28T20:44:06.371Z,16.40
2019-05-28T20:46:35.804Z,16.40
2019-05-28T20:49:06.664Z,16.50
2019-05-28T20:51:48.182Z,16.50
2019-05-28T20:54:17.129Z,16.50
2019-05-28T20:56:49.520Z,16.50
2019-05-28T20:59:17.986Z,16.40
2019-05-28T21:01:51.716Z,16.40
2019-05-28T21:04:20.662Z,16.30
2019-05-28T21:06:50.310Z,16.40
2019-05-28T21:09:19.323Z,16.30
2019-05-28T21:11:48.652Z,16.40
2019-05-28T21:14:23.739Z,16.30
2019-05-28T21:16:51.799Z,16.40
2019-05-28T21:19:24.545Z,16.40
2019-05-28T21:21:57.779Z,16.50
2019-05-28T21:24:35.201Z,16.60
2019-05-28T21:27:04.129Z,16.70
2019-05-28T21:29:33.050Z,16.60
2019-05-28T21:32:02.083Z,16.60
2019-05-28T21:34:33.591Z,16.60
2019-05-28T21:37:05.575Z,16.60
2019-05-28T21:39:33.743Z,16.60
2019-05-28T21:42:03.314Z,16.50
2019-05-28T21:44:35.298Z,16.60
2019-05-28T21:47:04.305Z,16.70
2019-05-28T21:49:35.488Z,16.70
2019-05-28T21:52:04.479Z,16.70
2019-05-28T21:54:33.398Z,16.60
2019-05-28T21:57:03.598Z,16.50
2019-05-28T21:59:32.593Z,16.50
2019-05-28T22:02:02.321Z,16.50
2019-05-28T22:04:32.138Z,16.60
2019-05-28T22:07:01.613Z,16.60
2019-05-28T22:09:30.908Z,16.60
2019-05-28T22:11:59.820Z,16.50
2019-05-28T22:14:29.000Z,16.40
2019-05-28T22:16:59.400Z,16.50
2019-05-28T22:19:28.541Z,16.40
2019-05-28T22:21:58.421Z,16.40
2019-05-28T22:24:27.315Z,16.40
2019-05-28T22:26:56.374Z,16.40
2019-05-28T22:29:25.257Z,16.30
2019-05-28T22:31:54.180Z,16.20
2019-05-28T22:34:23.101Z,16.00
2019-05-28T22:36:52.278Z,16.00
2019-05-28T22:39:21.500Z,16.00
2019-05-28T22:41:50.454Z,15.80
2019-05-28T22:44:19.412Z,15.80
2019-05-28T22:46:48.386Z,15.70
2019-05-28T22:49:17.370Z,15.70
2019-05-28T22:51:46.490Z,15.70
2019-05-28T22:54:15.403Z,15.60
2019-05-28T22:56:44.350Z,15.70
2019-05-28T22:59:13.410Z,15.60
2019-05-28T23:01:42.319Z,15.70
2019-05-28T23:04:11.291Z,15.80
2019-05-28T23:06:40.122Z,15.80
2019-05-28T23:09:09.861Z,15.70
2019-05-28T23:11:39.114Z,15.60
2019-05-28T23:14:08.247Z,15.50
2019-05-28T23:16:37.227Z,15.40
2019-05-28T23:19:06.711Z,15.40
2019-05-28T23:21:35.810Z,15.40
2019-05-28T23:24:05.141Z,15.40
2019-05-28T23:26:34.177Z,15.40
2019-05-28T23:29:03.723Z,15.40
2019-05-28T23:31:32.758Z,15.40
2019-05-28T23:34:02.281Z,15.10
2019-05-28T23:36:31.371Z,15.10
2019-05-28T23:39:00.370Z,15.10
2019-05-28T23:41:29.302Z,15.00
2019-05-28T23:44:02.023Z,15.00
2019-05-28T23:46:28.902Z,14.90
2019-05-28T23:48:57.857Z,14.80
2019-05-28T23:51:26.788Z,14.80
2019-05-28T23:53:55.742Z,14.80
2019-05-28T23:56:24.721Z,14.80
2019-05-28T23:58:53.573Z,14.80
